createdAt,value
2018-07-13T00:02:21.511Z,70.05
2018-07-13T00:04:50.329Z,71.11
2018-07-13T00:07:19.074Z,71.14
2018-07-13T00:09:47.913Z,70.15
2018-07-13T00:12:16.781Z,70.12
2018-07-13T00:14:56.485Z,70.17
2018-07-13T00:17:25.293Z,70.72
2018-07-13T00:19:54.106Z,70.86
2018-07-13T00:22:22.866Z,70.46
2018-07-13T00:24:51.708Z,70.36
2018-07-13T00:27:20.493Z,71.43
2018-07-13T00:29:49.279Z,71.37
2018-07-13T00:32:18.130Z,71.22
2018-07-13T00:34:46.894Z,71.04
2018-07-13T00:37:15.710Z,71.82
2018-07-13T00:39:44.533Z,71.82
2018-07-13T00:42:13.309Z,72.42
2018-07-13T00:44:42.173Z,72.02
2018-07-13T00:47:10.967Z,72.46
2018-07-13T00:49:39.804Z,72.64
2018-07-13T00:52:08.545Z,71.98
2018-07-13T00:54:37.378Z,71.71
2018-07-13T00:57:06.162Z,72.06
2018-07-13T00:59:35.028Z,71.76
2018-07-13T01:02:04.036Z,72.53
2018-07-13T01:04:32.825Z,71.65
2018-07-13T01:07:01.632Z,71.35
2018-07-13T01:09:30.390Z,71.54
2018-07-13T01:11:59.178Z,70.91
2018-07-13T01:14:28.003Z,71.93
2018-07-13T01:16:56.799Z,71.21
2018-07-13T01:19:25.577Z,71.24
2018-07-13T01:21:54.341Z,71.29
2018-07-13T01:24:23.134Z,72.50
2018-07-13T01:26:51.901Z,71.72
2018-07-13T01:29:20.711Z,72.50
2018-07-13T01:31:49.523Z,72.10
2018-07-13T01:34:18.330Z,72.48
2018-07-13T01:36:47.456Z,72.66
2018-07-13T01:39:16.322Z,72.30
2018-07-13T01:41:45.127Z,72.24
2018-07-13T01:44:13.995Z,72.66
2018-07-13T01:46:42.827Z,71.94
2018-07-13T01:49:11.993Z,72.32
2018-07-13T01:51:40.843Z,72.79
2018-07-13T01:54:09.615Z,72.88
2018-07-13T01:56:38.442Z,72.36
2018-07-13T01:59:07.270Z,71.89
2018-07-13T02:01:36.170Z,72.48
2018-07-13T02:04:04.951Z,71.98
2018-07-13T02:06:33.987Z,72.64
2018-07-13T02:09:02.839Z,72.27
2018-07-13T02:11:31.669Z,72.36
2018-07-13T02:14:00.452Z,72.48
2018-07-13T02:16:29.259Z,73.28
2018-07-13T02:18:58.027Z,73.30
2018-07-13T02:21:27.755Z,73.73
2018-07-13T02:23:56.490Z,73.62
2018-07-13T02:26:25.302Z,73.40
2018-07-13T02:28:54.053Z,73.65
2018-07-13T02:31:22.847Z,73.89
2018-07-13T02:33:51.657Z,73.33
2018-07-13T02:36:20.683Z,73.41
2018-07-13T02:38:49.462Z,73.13
2018-07-13T02:41:18.423Z,73.76
2018-07-13T02:43:47.229Z,72.85
2018-07-13T02:46:16.011Z,72.71
2018-07-13T02:48:44.774Z,73.89
2018-07-13T02:51:13.561Z,73.87
2018-07-13T02:53:42.355Z,73.49
2018-07-13T02:56:11.115Z,73.65
2018-07-13T02:58:39.896Z,73.59
2018-07-13T03:01:08.670Z,73.39
2018-07-13T03:03:37.868Z,73.52
2018-07-13T03:06:06.650Z,73.46
2018-07-13T03:08:35.478Z,74.38
2018-07-13T03:11:04.438Z,74.32
2018-07-13T03:13:33.262Z,73.26
2018-07-13T03:16:02.042Z,73.79
2018-07-13T03:18:30.798Z,73.93
2018-07-13T03:20:59.559Z,74.01
2018-07-13T03:23:28.328Z,73.76
2018-07-13T03:25:57.146Z,73.88
2018-07-13T03:28:25.927Z,71.99
2018-07-13T03:30:54.710Z,72.66
2018-07-13T03:33:23.525Z,71.72
2018-07-13T03:35:52.310Z,72.97
2018-07-13T03:38:21.135Z,71.96
2018-07-13T03:40:50.097Z,71.13
2018-07-13T03:43:18.882Z,70.20
2018-07-13T03:45:47.678Z,70.17
2018-07-13T03:48:16.472Z,69.69
2018-07-13T03:50:45.490Z,69.93
2018-07-13T03:53:14.237Z,71.35
2018-07-13T03:55:42.981Z,70.80
2018-07-13T03:58:11.808Z,70.47
2018-07-13T04:00:40.589Z,70.67
2018-07-13T04:03:09.446Z,70.54
2018-07-13T04:05:38.778Z,70.47
2018-07-13T04:08:07.593Z,71.29
2018-07-13T04:10:36.369Z,71.10
2018-07-13T04:13:05.363Z,71.32
2018-07-13T04:15:34.177Z,70.41
2018-07-13T04:18:02.969Z,70.00
2018-07-13T04:20:32.133Z,70.41
2018-07-13T04:23:01.026Z,69.70
2018-07-13T04:25:29.806Z,70.44
2018-07-13T04:27:58.759Z,70.18
2018-07-13T04:30:27.682Z,70.48
2018-07-13T04:32:56.443Z,71.12
2018-07-13T04:35:25.241Z,70.49
2018-07-13T04:37:54.259Z,70.43
2018-07-13T04:40:23.047Z,69.95
2018-07-13T04:42:51.806Z,69.54
2018-07-13T04:45:20.752Z,68.70
2018-07-13T04:47:49.661Z,69.15
2018-07-13T04:50:18.735Z,68.35
2018-07-13T04:52:47.845Z,67.83
2018-07-13T04:55:17.392Z,67.12
2018-07-13T04:57:46.219Z,65.68
2018-07-13T05:00:15.181Z,62.76
2018-07-13T05:02:44.041Z,59.92
2018-07-13T05:05:13.269Z,57.54
2018-07-13T05:07:42.181Z,57.33
2018-07-13T05:10:11.038Z,54.20
2018-07-13T05:12:39.806Z,54.06
2018-07-13T05:15:09.433Z,53.71
2018-07-13T05:17:38.223Z,52.72
2018-07-13T05:20:07.116Z,52.23
2018-07-13T05:22:36.639Z,51.82
2018-07-13T05:25:06.177Z,50.87
2018-07-13T05:27:35.136Z,49.41
2018-07-13T05:30:06.039Z,49.59
2018-07-13T05:32:35.336Z,49.32
2018-07-13T05:35:04.258Z,49.60
2018-07-13T05:37:33.221Z,50.28
2018-07-13T05:40:04.112Z,50.12
2018-07-13T05:42:33.012Z,51.07
2018-07-13T05:45:01.999Z,51.40
2018-07-13T05:47:31.163Z,51.11
2018-07-13T05:50:00.204Z,50.66
2018-07-13T05:52:29.134Z,51.04
2018-07-13T05:54:58.847Z,51.67
2018-07-13T05:57:28.022Z,53.03
2018-07-13T05:59:56.979Z,51.58
2018-07-13T06:02:25.969Z,53.02
2018-07-13T06:04:55.160Z,54.53
2018-07-13T06:07:24.086Z,55.43
2018-07-13T06:09:52.949Z,56.75
2018-07-13T06:12:21.825Z,57.46
2018-07-13T06:14:50.588Z,57.24
2018-07-13T06:17:19.353Z,57.62
2018-07-13T06:19:48.217Z,57.08
2018-07-13T06:22:17.042Z,58.28
2018-07-13T06:24:45.829Z,59.08
2018-07-13T06:27:14.647Z,59.13
2018-07-13T06:29:43.706Z,59.06
2018-07-13T06:32:12.548Z,58.61
2018-07-13T06:34:41.723Z,59.31
2018-07-13T06:37:11.001Z,58.76
2018-07-13T06:39:39.878Z,60.17
2018-07-13T06:42:08.706Z,60.78
2018-07-13T06:44:37.522Z,59.92
2018-07-13T06:47:06.505Z,61.57
2018-07-13T06:49:35.430Z,61.08
2018-07-13T06:52:04.502Z,61.79
2018-07-13T06:54:33.394Z,60.25
2018-07-13T06:57:02.269Z,60.81
2018-07-13T06:59:31.082Z,61.07
2018-07-13T07:01:59.957Z,61.59
2018-07-13T07:04:31.498Z,61.56
2018-07-13T07:07:32.533Z,61.31
2018-07-13T07:10:01.623Z,59.82
2018-07-13T07:12:52.043Z,60.81
2018-07-13T07:15:21.377Z,60.29
2018-07-13T07:17:50.294Z,60.72
2018-07-13T07:20:19.329Z,59.41
2018-07-13T07:22:48.676Z,60.28
2018-07-13T07:25:17.639Z,59.81
2018-07-13T07:27:46.794Z,59.55
2018-07-13T07:30:15.662Z,60.49
2018-07-13T07:32:45.353Z,60.68
2018-07-13T07:35:14.116Z,59.04
2018-07-13T07:37:43.018Z,58.20
2018-07-13T07:40:11.886Z,58.31
2018-07-13T07:42:40.829Z,57.95
2018-07-13T07:45:09.723Z,57.85
2018-07-13T07:47:38.551Z,58.91
2018-07-13T07:50:07.656Z,58.08
2018-07-13T07:52:36.604Z,56.87
2018-07-13T07:55:05.495Z,56.17
2018-07-13T07:57:34.335Z,57.57
2018-07-13T08:00:04.612Z,57.09
2018-07-13T08:02:33.871Z,56.15
2018-07-13T08:05:02.722Z,56.41
2018-07-13T08:07:31.639Z,55.33
2018-07-13T08:10:00.575Z,55.38
2018-07-13T08:12:29.360Z,54.65
2018-07-13T08:14:58.431Z,55.43
2018-07-13T08:17:27.417Z,53.36
2018-07-13T08:19:56.580Z,54.91
2018-07-13T08:22:38.199Z,53.18
2018-07-13T08:25:09.464Z,53.02
2018-07-13T08:27:44.418Z,53.09
2018-07-13T08:30:22.077Z,53.47
2018-07-13T08:32:50.900Z,52.01
2018-07-13T08:35:20.125Z,51.66
2018-07-13T08:37:48.982Z,50.78
2018-07-13T08:40:17.979Z,50.52
2018-07-13T08:42:46.857Z,50.41
2018-07-13T08:45:16.058Z,50.43
2018-07-13T08:47:44.964Z,51.37
2018-07-13T08:50:13.961Z,50.90
2018-07-13T08:52:42.925Z,51.04
2018-07-13T08:55:14.457Z,50.26
2018-07-13T08:57:45.876Z,50.73
2018-07-13T09:00:14.953Z,50.56
2018-07-13T09:02:44.164Z,50.56
2018-07-13T09:05:13.021Z,50.78
2018-07-13T09:07:41.888Z,49.27
2018-07-13T09:10:11.633Z,50.70
2018-07-13T09:12:40.723Z,50.50
2018-07-13T09:15:10.899Z,48.89
2018-07-13T09:17:40.247Z,49.32
2018-07-13T09:20:11.398Z,49.47
2018-07-13T09:22:40.269Z,49.78
2018-07-13T09:25:10.108Z,48.57
2018-07-13T09:27:39.261Z,47.70
2018-07-13T09:30:09.088Z,47.31
2018-07-13T09:32:37.949Z,47.19
2018-07-13T09:35:06.799Z,46.08
2018-07-13T09:37:36.090Z,45.10
2018-07-13T09:40:05.127Z,43.51
2018-07-13T09:42:34.499Z,43.51
2018-07-13T09:45:03.391Z,43.93
2018-07-13T09:47:32.919Z,42.60
2018-07-13T09:50:01.774Z,44.05
2018-07-13T09:52:30.622Z,43.00
2018-07-13T09:54:59.709Z,43.30
2018-07-13T09:57:28.530Z,43.20
2018-07-13T09:59:57.416Z,43.46
2018-07-13T10:02:26.387Z,43.51
2018-07-13T10:04:58.865Z,42.45
2018-07-13T10:07:28.953Z,43.10
2018-07-13T10:09:59.794Z,43.26
2018-07-13T10:12:28.714Z,42.58
2018-07-13T10:14:57.646Z,45.14
2018-07-13T10:17:27.288Z,42.15
2018-07-13T10:19:56.110Z,40.17
2018-07-13T10:22:29.018Z,42.32
2018-07-13T10:25:01.396Z,42.71
2018-07-13T10:27:33.331Z,42.18
2018-07-13T10:30:04.206Z,41.45
2018-07-13T10:32:33.700Z,42.76
2018-07-13T10:35:03.643Z,41.99
2018-07-13T10:37:32.681Z,41.32
2018-07-13T10:40:01.608Z,42.62
2018-07-13T10:42:30.572Z,43.00
2018-07-13T10:44:59.417Z,43.33
2018-07-13T10:47:28.370Z,43.22
2018-07-13T10:49:57.183Z,43.88
2018-07-13T10:52:26.384Z,43.02
2018-07-13T10:54:55.223Z,42.94
2018-07-13T10:57:24.060Z,41.81
2018-07-13T10:59:52.921Z,41.87
2018-07-13T11:02:21.901Z,41.63
2018-07-13T11:04:50.707Z,42.11
2018-07-13T11:07:19.619Z,40.31
2018-07-13T11:09:48.428Z,40.70
2018-07-13T11:12:17.251Z,40.34
2018-07-13T11:14:46.711Z,41.55
2018-07-13T11:17:15.566Z,40.88
2018-07-13T11:19:44.400Z,40.08
2018-07-13T11:22:13.314Z,41.11
2018-07-13T11:24:42.200Z,41.19
2018-07-13T11:27:11.081Z,42.50
2018-07-13T11:29:39.989Z,42.11
2018-07-13T11:32:08.999Z,41.66
2018-07-13T11:34:37.915Z,41.15
2018-07-13T11:37:07.458Z,40.49
2018-07-13T11:39:36.414Z,39.62
2018-07-13T11:42:05.229Z,41.17
2018-07-13T11:44:34.073Z,42.54
2018-07-13T11:47:02.907Z,41.44
2018-07-13T11:49:31.736Z,43.29
2018-07-13T11:52:00.591Z,45.00
2018-07-13T11:54:29.487Z,46.71
2018-07-13T11:56:58.330Z,47.93
2018-07-13T11:59:27.151Z,48.84
2018-07-13T12:01:56.083Z,51.07
2018-07-13T12:04:25.001Z,50.02
2018-07-13T12:06:53.783Z,50.98
2018-07-13T12:09:22.590Z,51.13
2018-07-13T12:11:51.435Z,50.46
2018-07-13T12:14:20.182Z,49.44
2018-07-13T12:16:49.183Z,51.29
2018-07-13T12:19:18.000Z,53.85
2018-07-13T12:21:46.835Z,54.06
2018-07-13T12:24:15.924Z,54.12
2018-07-13T12:26:44.721Z,53.19
2018-07-13T12:29:15.401Z,49.62
2018-07-13T12:31:44.238Z,51.45
2018-07-13T12:34:13.045Z,52.00
2018-07-13T12:36:41.822Z,51.17
2018-07-13T12:39:10.667Z,51.34
2018-07-13T12:41:39.780Z,51.30
2018-07-13T12:44:08.682Z,51.32
2018-07-13T12:46:37.831Z,50.34
2018-07-13T12:49:06.774Z,50.50
2018-07-13T12:51:35.655Z,52.37
2018-07-13T12:54:04.466Z,52.30
2018-07-13T12:56:33.531Z,52.01
2018-07-13T12:59:02.443Z,50.66
2018-07-13T13:01:31.281Z,49.77
2018-07-13T13:04:00.144Z,48.38
2018-07-13T13:06:28.988Z,48.56
2018-07-13T13:08:57.826Z,48.15
2018-07-13T13:11:26.651Z,48.48
2018-07-13T13:13:55.458Z,48.48
2018-07-13T13:16:24.327Z,46.93
2018-07-13T13:18:53.106Z,46.93
2018-07-13T13:21:21.894Z,47.53
2018-07-13T13:23:50.796Z,46.37
2018-07-13T13:26:19.687Z,46.42
2018-07-13T13:28:48.445Z,46.88
2018-07-13T13:31:17.289Z,44.77
2018-07-13T13:33:46.170Z,44.30
2018-07-13T13:36:15.008Z,45.16
2018-07-13T13:38:43.827Z,42.56
2018-07-13T13:41:12.725Z,41.09
2018-07-13T13:43:41.563Z,42.33
2018-07-13T13:46:10.468Z,43.14
2018-07-13T13:48:39.322Z,44.39
2018-07-13T13:51:08.139Z,44.93
2018-07-13T13:53:37.080Z,44.28
2018-07-13T13:56:06.071Z,44.39
2018-07-13T13:58:34.863Z,43.11
2018-07-13T14:01:03.678Z,42.98
2018-07-13T14:03:32.994Z,42.86
2018-07-13T14:06:01.802Z,46.64
2018-07-13T14:08:30.623Z,51.35
2018-07-13T14:10:59.547Z,54.03
2018-07-13T14:13:28.361Z,55.37
2018-07-13T14:15:57.406Z,55.98
2018-07-13T14:18:27.147Z,56.13
2018-07-13T14:20:55.963Z,56.48
2018-07-13T14:23:24.760Z,56.89
2018-07-13T14:25:53.590Z,57.73
2018-07-13T14:28:22.482Z,56.55
2018-07-13T14:30:51.684Z,54.22
2018-07-13T14:33:20.549Z,54.27
2018-07-13T14:35:49.356Z,53.48
2018-07-13T14:38:18.132Z,54.03
2018-07-13T14:40:48.075Z,53.53
2018-07-13T14:43:16.973Z,53.04
2018-07-13T14:45:57.885Z,53.59
2018-07-13T14:48:26.860Z,53.98
2018-07-13T14:50:55.890Z,52.32
2018-07-13T14:53:28.802Z,52.31
2018-07-13T14:55:57.745Z,52.52
2018-07-13T14:58:27.072Z,52.15
2018-07-13T15:00:55.967Z,51.97
2018-07-13T15:03:24.983Z,50.71
2018-07-13T15:05:54.094Z,49.19
2018-07-13T15:08:23.276Z,48.50
2018-07-13T15:10:52.241Z,48.33
2018-07-13T15:13:21.244Z,49.63
2018-07-13T15:15:50.227Z,49.45
2018-07-13T15:18:19.198Z,47.92
2018-07-13T15:20:48.153Z,47.43
2018-07-13T15:23:17.041Z,48.24
2018-07-13T15:25:45.976Z,48.02
2018-07-13T15:28:15.020Z,47.15
2018-07-13T15:30:43.834Z,48.48
2018-07-13T15:33:12.699Z,46.99
2018-07-13T15:35:41.601Z,47.62
2018-07-13T15:38:10.409Z,45.67
2018-07-13T15:40:39.298Z,44.56
2018-07-13T15:43:08.058Z,45.38
2018-07-13T15:45:36.890Z,45.83
2018-07-13T15:48:05.654Z,45.40
2018-07-13T15:50:34.448Z,44.97
2018-07-13T15:53:03.763Z,45.02
2018-07-13T15:55:37.732Z,45.73
2018-07-13T15:58:06.551Z,45.75
2018-07-13T16:00:35.838Z,44.26
2018-07-13T16:03:05.036Z,45.07
2018-07-13T16:05:34.311Z,44.54
2018-07-13T16:08:03.275Z,46.07
2018-07-13T16:10:32.403Z,46.40
2018-07-13T16:13:01.221Z,45.92
2018-07-13T16:15:30.108Z,46.76
2018-07-13T16:17:58.900Z,46.33
2018-07-13T16:20:27.766Z,45.37
2018-07-13T16:22:56.613Z,45.79
2018-07-13T16:25:25.574Z,46.85
2018-07-13T16:27:54.489Z,46.91
2018-07-13T16:30:23.243Z,46.09
2018-07-13T16:32:52.423Z,45.98
2018-07-13T16:35:21.249Z,46.13
2018-07-13T16:37:50.906Z,45.50
2018-07-13T16:40:19.664Z,46.37
2018-07-13T16:42:48.457Z,45.45
2018-07-13T16:45:17.292Z,46.26
2018-07-13T16:47:46.101Z,46.04
2018-07-13T16:50:14.966Z,46.71
2018-07-13T16:52:43.733Z,45.31
2018-07-13T16:55:12.509Z,45.15
2018-07-13T16:57:41.310Z,45.26
2018-07-13T17:00:10.146Z,44.85
2018-07-13T17:02:38.914Z,45.85
2018-07-13T17:05:07.682Z,47.70
2018-07-13T17:07:36.463Z,47.50
2018-07-13T17:10:05.283Z,48.96
2018-07-13T17:12:34.092Z,49.95
2018-07-13T17:15:02.908Z,50.42
2018-07-13T17:17:31.748Z,52.71
2018-07-13T17:20:00.542Z,53.14
2018-07-13T17:22:29.402Z,52.64
2018-07-13T17:24:58.158Z,53.33
2018-07-13T17:27:27.010Z,52.38
2018-07-13T17:29:55.803Z,51.48
2018-07-13T17:32:25.022Z,51.24
2018-07-13T17:34:53.799Z,52.58
2018-07-13T17:37:22.562Z,53.62
2018-07-13T17:39:51.907Z,52.94
2018-07-13T17:42:20.700Z,53.63
2018-07-13T17:44:49.575Z,52.79
2018-07-13T17:47:18.367Z,52.48
2018-07-13T17:49:48.106Z,52.17
2018-07-13T17:52:16.959Z,53.38
2018-07-13T17:54:45.721Z,53.29
2018-07-13T17:57:20.798Z,52.93
2018-07-13T17:59:49.685Z,54.02
2018-07-13T18:02:18.988Z,53.46
2018-07-13T18:04:47.772Z,53.17
2018-07-13T18:07:16.607Z,53.17
2018-07-13T18:09:45.410Z,52.83
2018-07-13T18:12:14.296Z,54.39
2018-07-13T18:14:43.112Z,53.65
2018-07-13T18:17:11.919Z,53.89
2018-07-13T18:19:40.717Z,55.11
2018-07-13T18:22:09.861Z,55.06
2018-07-13T18:24:38.663Z,55.63
2018-07-13T18:27:07.642Z,55.55
2018-07-13T18:29:36.440Z,56.69
2018-07-13T18:32:05.839Z,55.24
2018-07-13T18:34:38.590Z,56.73
2018-07-13T18:37:09.189Z,56.78
2018-07-13T18:39:39.438Z,56.37
2018-07-13T18:42:11.255Z,56.78
2018-07-13T18:44:40.065Z,56.66
2018-07-13T18:47:10.311Z,56.73
2018-07-13T18:49:40.723Z,57.59
2018-07-13T18:52:10.336Z,57.52
2018-07-13T18:54:40.788Z,57.28
2018-07-13T18:57:10.560Z,57.52
2018-07-13T18:59:40.737Z,58.25
2018-07-13T19:02:10.295Z,58.22
2018-07-13T19:04:40.078Z,56.65
2018-07-13T19:07:09.211Z,57.22
2018-07-13T19:09:38.074Z,58.52
2018-07-13T19:12:09.038Z,58.84
2018-07-13T19:14:38.042Z,58.60
2018-07-13T19:17:07.620Z,59.66
2018-07-13T19:19:38.181Z,60.15
2018-07-13T19:22:10.315Z,59.93
2018-07-13T19:24:39.174Z,60.73
2018-07-13T19:27:08.044Z,60.37
2018-07-13T19:29:36.813Z,59.32
2018-07-13T19:32:05.704Z,60.38
2018-07-13T19:34:34.585Z,60.15
2018-07-13T19:37:03.451Z,59.52
2018-07-13T19:39:32.229Z,60.64
2018-07-13T19:42:01.378Z,59.84
2018-07-13T19:44:30.190Z,59.98
2018-07-13T19:46:58.980Z,59.54
2018-07-13T19:49:28.075Z,60.44
2018-07-13T19:51:56.938Z,60.91
2018-07-13T19:54:25.748Z,61.08
2018-07-13T19:56:54.542Z,61.78
2018-07-13T19:59:23.313Z,63.12
2018-07-13T20:01:52.607Z,62.61
2018-07-13T20:04:21.476Z,62.95
2018-07-13T20:06:50.271Z,64.17
2018-07-13T20:09:19.509Z,63.38
2018-07-13T20:11:48.720Z,64.44
2018-07-13T20:14:17.488Z,63.08
2018-07-13T20:16:46.308Z,62.98
2018-07-13T20:19:15.293Z,62.74
2018-07-13T20:21:44.120Z,63.15
2018-07-13T20:24:13.467Z,63.96
2018-07-13T20:26:42.293Z,64.75
2018-07-13T20:29:11.596Z,63.42
2018-07-13T20:31:40.638Z,64.18
2018-07-13T20:34:09.438Z,63.39
2018-07-13T20:36:38.225Z,63.59
2018-07-13T20:39:07.686Z,63.74
2018-07-13T20:41:36.775Z,62.91
2018-07-13T20:44:05.597Z,62.30
2018-07-13T20:46:38.171Z,62.28
2018-07-13T20:49:07.067Z,60.99
2018-07-13T20:51:35.870Z,61.02
2018-07-13T20:54:04.707Z,61.15
2018-07-13T20:56:33.634Z,61.98
2018-07-13T20:59:02.557Z,61.15
2018-07-13T21:01:31.506Z,61.03
2018-07-13T21:04:00.348Z,61.13
2018-07-13T21:06:29.133Z,62.02
2018-07-13T21:08:57.964Z,61.41
2018-07-13T21:11:26.785Z,60.67
2018-07-13T21:13:55.598Z,60.82
2018-07-13T21:16:24.418Z,60.46
2018-07-13T21:18:53.739Z,61.45
2018-07-13T21:21:22.573Z,61.33
2018-07-13T21:23:51.537Z,61.53
2018-07-13T21:26:20.330Z,61.13
2018-07-13T21:28:49.247Z,61.35
2018-07-13T21:31:18.039Z,61.50
2018-07-13T21:33:46.846Z,62.48
2018-07-13T21:36:15.646Z,61.89
2018-07-13T21:38:44.459Z,62.81
2018-07-13T21:41:13.262Z,62.75
2018-07-13T21:43:42.097Z,62.10
2018-07-13T21:46:10.928Z,63.19
2018-07-13T21:48:39.729Z,62.84
2018-07-13T21:51:08.514Z,62.83
2018-07-13T21:53:37.961Z,62.80
2018-07-13T21:56:06.763Z,63.90
2018-07-13T21:58:35.562Z,64.01
2018-07-13T22:01:04.463Z,62.95
2018-07-13T22:03:33.263Z,64.19
2018-07-13T22:06:02.192Z,64.02
2018-07-13T22:08:30.964Z,63.70
2018-07-13T22:10:59.774Z,64.61
2018-07-13T22:13:28.596Z,64.40
2018-07-13T22:15:57.397Z,63.55
2018-07-13T22:18:26.720Z,63.65
2018-07-13T22:20:55.736Z,64.80
2018-07-13T22:23:24.790Z,63.95
2018-07-13T22:25:54.164Z,63.05
2018-07-13T22:28:22.948Z,63.19
2018-07-13T22:30:51.895Z,62.78
2018-07-13T22:33:20.702Z,63.74
2018-07-13T22:35:49.541Z,63.84
2018-07-13T22:38:18.355Z,63.98
2018-07-13T22:40:47.190Z,62.94
2018-07-13T22:43:15.995Z,61.83
2018-07-13T22:45:44.837Z,62.76
2018-07-13T22:48:13.670Z,61.57
2018-07-13T22:50:42.502Z,62.82
2018-07-13T22:53:11.338Z,62.81
2018-07-13T22:55:40.130Z,61.62
2018-07-13T22:58:09.049Z,60.99
2018-07-13T23:00:37.879Z,60.97
2018-07-13T23:03:07.050Z,60.99
2018-07-13T23:05:35.854Z,60.31
2018-07-13T23:08:04.637Z,60.13
2018-07-13T23:10:33.846Z,60.50
2018-07-13T23:13:02.699Z,60.27
2018-07-13T23:15:31.514Z,60.42
2018-07-13T23:18:00.356Z,60.33
2018-07-13T23:20:29.234Z,60.71
2018-07-13T23:22:58.030Z,60.28
2018-07-13T23:25:26.846Z,59.90
2018-07-13T23:27:55.599Z,60.16
2018-07-13T23:30:24.403Z,59.00
2018-07-13T23:32:53.182Z,58.73
2018-07-13T23:35:21.958Z,59.25
2018-07-13T23:37:50.789Z,59.26
2018-07-13T23:40:19.578Z,58.88
2018-07-13T23:42:48.332Z,58.97
2018-07-13T23:45:17.119Z,57.82
2018-07-13T23:47:45.905Z,57.64
2018-07-13T23:50:14.646Z,58.22
2018-07-13T23:52:43.823Z,57.92
2018-07-13T23:55:12.609Z,57.23
2018-07-13T23:57:41.447Z,58.02
